Main page
METAR-TAF:

METAR-TAF

Airports :

Quatro de Fevereiro Airport

Luanda, Angola

latitude: 08-51S, longitude: 013-14E, elevation: 74 m

Current weather observation

The report was made 52 minutes ago, at 23:00 UTC
Wind 4 kt from the Southwest
Temperature 22°C
Humidity 88%
Pressure 1013 hPa
Visibility: 6000 m

METAR: FNLU 232300Z 22004KT 6000 NSC 22/20 Q1013

Time: 00:52 (23:52 UTC)

Forecast

The report was made 52 minutes ago, at 23:00 UTC
Forecast valid from 24 at 00 UTC to 25 at 06 UTC
Wind 3 kt from variable directions
Visibility: 8000 m
Few clouds at a height of 2200 ft
Probability 30% :
Temporary
from 24 at 02 UTC to 24 at 06 UTC
Broken clouds at a height of 1500 ft
mist
Becoming
from 24 at 15 UTC to 24 at 18 UTC
Visibility 10 km or more
no clouds below 1500 m and no cumulonimbus

TAF: FNLU 232300Z 2400/2506 VRB03KT 8000 FEW022 PROB30 TEMPO 2402/2406 BR BKN015 BECMG 2415/2418 CAVOK

Weather observations and forecasts of more than 4000 airports (METAR and TAF reports).

The available stations are represented by yellow and red dots on the map.

Hover mouse over dot to see the name of the station.

Then click to see weather observations and forecasts.

To change the map : click on the green buttons with a black cross to zoom in, on the green button with a dash to zoom out, or on the green arrows for adjacent maps.


METAR-TAF: